No data was retrieved for https://query.yahooapis.com/v1/public/yql?q=select+%2A+from+weather.forecast+where+woeid%3D731260&format=xml&u=c



Extreme hitte van: 12-08-2020 13:00 tot: 14-08-2020 09:00 waarschuwing voor: Extreme hitte niveau: Geel info button

METAR rapporten vliegvelden

   
EHAM - Amsterdam
Gewijzigd: 12-08-2020 16:55
Helder  
Helder  
   Wind: ONO 11.1 km/h
Wind: ONO 11.1 km/h
Temperatuur: 31°C
Gevoelstemperatuur: 32°C
Dauwpunt: 18°C
Vochtigheid: 46%
Barometer: 1013 hPa
Zicht: meer dan 10 km
Bewolking: Helder
EHAM 121455Z 06006KT CAVOK 31/18 Q1013 NOSIG
EHBK - Maastricht
Gewijzigd: 12-08-2020 16:55
Onweer, Licht bewolkt  
Onweer, Licht bewolkt  
   Wind: OZO 22.2 km/h
Wind: OZO 22.2 km/h
Temperatuur: 30°C
Gevoelstemperatuur: 31°C
Dauwpunt: 18°C
Vochtigheid: 49%
Barometer: 1013 hPa
Bewolking: Licht bewolkt
Zicht: meer dan 10 km
Bewolking: Licht bewolkt 4900 ft
EHBK 121455Z AUTO 12012KT 050V150 9999 TS FEW049CB 30/18 Q1013 TEMPO 18015G25KT 4000 TSRAGR
ELLX - Luxemburg
Gewijzigd: 12-08-2020 16:50
Licht bewolkt  
Licht bewolkt  
   Wind: ZZW 16.7 km/h
Wind: ZZW 16.7 km/h
Temperatuur: 33°C
Dauwpunt: 15°C
Vochtigheid: 34%
Barometer: 1014 hPa
Bewolking: Licht bewolkt
Zicht: meer dan 10 km
Bewolking: Licht bewolkt 5000 ft
ELLX 121450Z 20009KT 160V260 9999 FEW050CB 33/15 Q1014 NOSIG
EDDL - Dusseldorf
Gewijzigd: 12-08-2020 16:50
Helder  
Helder  
   Wind: Oosten 11.1 km/h
Wind: Oosten 11.1 km/h
Temperatuur: 33°C
Gevoelstemperatuur: 34°C
Dauwpunt: 18°C
Vochtigheid: 41%
Barometer: 1013 hPa
Zicht: meer dan 10 km
Bewolking: Helder
EDDL 121450Z 08006KT 010V140 CAVOK 33/18 Q1013 NOSIG
  

Script ontwikkeld door  Saratoga-weather.org Aangepast voor de template door  Weerstation Leuven